createdAt,value
2017-04-10T00:01:25.442Z,0
2017-04-10T00:03:49.160Z,0
2017-04-10T00:06:13.988Z,0
2017-04-10T00:08:37.735Z,0
2017-04-10T00:11:01.493Z,0
2017-04-10T00:13:25.298Z,0
2017-04-10T00:15:49.061Z,0
2017-04-10T00:18:12.863Z,0
2017-04-10T00:20:36.594Z,0
2017-04-10T00:23:00.349Z,0
2017-04-10T00:25:24.175Z,0
2017-04-10T00:27:47.945Z,0
2017-04-10T00:30:11.698Z,0
2017-04-10T00:32:35.437Z,0
2017-04-10T00:34:59.126Z,0
2017-04-10T00:37:14.384Z,0
2017-04-10T00:39:38.077Z,0
2017-04-10T00:41:53.409Z,0
2017-04-10T00:44:17.127Z,0
2017-04-10T00:46:40.782Z,0
2017-04-10T00:48:56.072Z,0
2017-04-10T00:51:19.754Z,0
2017-04-10T00:55:45.278Z,0
2017-04-10T00:58:08.942Z,0
2017-04-10T01:00:32.626Z,0
2017-04-10T01:02:56.416Z,0
2017-04-10T01:05:20.165Z,0
2017-04-10T01:07:43.848Z,0
2017-04-10T01:10:07.512Z,0
2017-04-10T01:12:31.174Z,0
2017-04-10T01:14:46.460Z,0
2017-04-10T01:17:10.117Z,0
2017-04-10T01:19:33.801Z,0
2017-04-10T01:21:57.485Z,0
2017-04-10T01:24:21.240Z,0
2017-04-10T01:26:36.489Z,0
2017-04-10T01:29:00.202Z,0
2017-04-10T01:31:23.871Z,0
2017-04-10T01:33:47.520Z,0
2017-04-10T01:36:11.222Z,0
2017-04-10T01:42:38.315Z,0
2017-04-10T01:45:02.074Z,0
2017-04-10T01:49:10.456Z,0
2017-04-10T01:51:34.159Z,0
2017-04-10T01:53:49.449Z,0
2017-04-10T01:58:14.920Z,0
2017-04-10T02:00:38.671Z,0
2017-04-10T02:03:02.217Z,0
2017-04-10T02:05:25.867Z,0
2017-04-10T02:07:49.535Z,0
2017-04-10T02:10:13.100Z,0
2017-04-10T02:12:36.706Z,0
2017-04-10T02:15:00.362Z,0
2017-04-10T02:17:24.038Z,0
2017-04-10T02:21:50.531Z,0
2017-04-10T02:24:06.770Z,0
2017-04-10T02:26:30.460Z,0
2017-04-10T02:28:54.009Z,0
2017-04-10T02:31:17.595Z,0
2017-04-10T02:33:42.205Z,0
2017-04-10T02:35:49.043Z,0
2017-04-10T02:38:12.631Z,0
2017-04-10T02:40:27.820Z,0
2017-04-10T02:42:42.959Z,0
2017-04-10T02:45:06.564Z,0
2017-04-10T02:47:30.246Z,0
2017-04-10T02:49:53.910Z,0
2017-04-10T02:52:17.562Z,0
2017-04-10T02:54:41.267Z,0
2017-04-10T02:57:04.815Z,0
2017-04-10T02:59:28.374Z,0
2017-04-10T03:01:51.923Z,0
2017-04-10T03:04:15.531Z,0
2017-04-10T03:06:39.070Z,0
2017-04-10T03:09:02.696Z,0
2017-04-10T03:11:26.321Z,0
2017-04-10T03:13:49.948Z,0
2017-04-10T03:16:13.446Z,0
2017-04-10T03:18:37.037Z,0
2017-04-10T03:21:00.577Z,0
2017-04-10T03:23:24.196Z,0
2017-04-10T03:25:47.728Z,0
2017-04-10T03:28:11.322Z,0
2017-04-10T03:32:45.117Z,0
2017-04-10T03:37:10.417Z,0
2017-04-10T03:39:34.051Z,0
2017-04-10T03:41:57.598Z,0
2017-04-10T03:44:12.790Z,0
2017-04-10T03:46:37.356Z,0
2017-04-10T03:49:00.951Z,0
2017-04-10T03:51:24.513Z,0
2017-04-10T03:53:49.002Z,0
2017-04-10T03:56:12.564Z,0
2017-04-10T03:58:36.154Z,0
2017-04-10T04:00:51.300Z,0
2017-04-10T04:03:14.893Z,0
2017-04-10T04:05:39.450Z,0
2017-04-10T04:08:03.043Z,0
2017-04-10T04:10:27.679Z,0
2017-04-10T04:14:52.491Z,0
2017-04-10T04:17:16.017Z,0
2017-04-10T04:19:39.578Z,0
2017-04-10T04:22:03.053Z,0
2017-04-10T04:24:26.513Z,0
2017-04-10T04:26:49.989Z,0
2017-04-10T04:29:13.561Z,0
2017-04-10T04:31:37.058Z,0
2017-04-10T04:34:00.592Z,0
2017-04-10T04:36:25.202Z,0
2017-04-10T04:38:51.346Z,0
2017-04-10T04:41:18.192Z,0
2017-04-10T04:43:36.813Z,0
2017-04-10T04:46:00.305Z,5
2017-04-10T04:48:30.817Z,5
2017-04-10T04:53:04.471Z,5
2017-04-10T04:55:27.998Z,10
2017-04-10T04:57:51.577Z,10
2017-04-10T05:00:15.169Z,15
2017-04-10T05:02:38.716Z,15
2017-04-10T05:05:02.322Z,15
2017-04-10T05:07:25.787Z,20
2017-04-10T05:09:49.330Z,25
2017-04-10T05:12:12.798Z,30
2017-04-10T05:14:36.390Z,45
2017-04-10T05:16:59.984Z,65
2017-04-10T05:19:23.652Z,170
2017-04-10T05:21:47.352Z,225
2017-04-10T05:24:11.126Z,280
2017-04-10T05:26:35.045Z,245
2017-04-10T05:28:59.037Z,165
2017-04-10T05:31:14.629Z,240
2017-04-10T05:35:32.208Z,540
2017-04-10T05:37:56.563Z,560
2017-04-10T05:40:20.974Z,560
2017-04-10T05:42:45.408Z,670
2017-04-10T05:45:01.496Z,680
2017-04-10T05:47:26.164Z,755
2017-04-10T05:49:50.844Z,750
2017-04-10T05:53:52.122Z,800
2017-04-10T05:56:17.131Z,925
2017-04-10T05:58:42.154Z,830
2017-04-10T06:02:43.812Z,980
2017-04-10T06:05:09.135Z,975
2017-04-10T06:07:34.540Z,1040
2017-04-10T06:09:59.979Z,1045
2017-04-10T06:12:25.493Z,1170
2017-04-10T06:16:44.272Z,1195
2017-04-10T06:19:09.977Z,1255
2017-04-10T06:21:35.673Z,1245
2017-04-10T06:24:01.390Z,1375
2017-04-10T06:26:27.162Z,1285
2017-04-10T06:28:52.987Z,1145
2017-04-10T06:31:10.350Z,900
2017-04-10T06:33:36.256Z,715
2017-04-10T06:36:02.141Z,520
2017-04-10T06:38:27.967Z,445
2017-04-10T06:40:54.564Z,425
2017-04-10T06:43:22.397Z,400
2017-04-10T06:45:48.951Z,390
2017-04-10T06:48:14.422Z,375
2017-04-10T06:50:40.939Z,355
2017-04-10T06:53:06.473Z,325
2017-04-10T06:55:31.865Z,270
2017-04-10T07:00:19.245Z,215
2017-04-10T07:04:48.575Z,260
2017-04-10T07:07:25.908Z,295
2017-04-10T07:09:50.838Z,415
2017-04-10T07:12:35.774Z,510
2017-04-10T07:15:02.831Z,565
2017-04-10T07:17:30.249Z,640
2017-04-10T07:20:00.807Z,820
2017-04-10T07:22:30.514Z,1560
2017-04-10T07:25:13.119Z,1925
2017-04-10T07:27:40.744Z,1930
2017-04-10T07:30:08.494Z,1990
2017-04-10T07:32:36.579Z,2015
2017-04-10T07:35:03.408Z,2095
2017-04-10T07:37:30.697Z,2000
2017-04-10T07:39:58.169Z,2060
2017-04-10T07:42:32.056Z,2005
2017-04-10T07:45:03.833Z,1705
2017-04-10T07:49:23.394Z,555
2017-04-10T07:55:18.232Z,455
2017-04-10T07:57:38.711Z,405
2017-04-10T08:00:02.762Z,390
2017-04-10T08:02:29.684Z,410
2017-04-10T08:06:57.776Z,425
2017-04-10T08:09:24.421Z,410
2017-04-10T08:11:49.998Z,390
2017-04-10T08:14:15.750Z,380
2017-04-10T08:16:42.299Z,375
2017-04-10T08:19:07.640Z,385
2017-04-10T08:21:33.147Z,400
2017-04-10T08:23:58.641Z,455
2017-04-10T08:26:23.947Z,470
2017-04-10T08:28:49.361Z,490
2017-04-10T08:31:06.852Z,490
2017-04-10T08:33:32.369Z,485
2017-04-10T08:35:57.880Z,485
2017-04-10T08:38:23.218Z,505
2017-04-10T08:40:48.712Z,495
2017-04-10T08:43:14.317Z,505
2017-04-10T08:45:39.843Z,480
2017-04-10T08:48:05.122Z,475
2017-04-10T08:50:30.407Z,450
2017-04-10T08:52:47.235Z,425
2017-04-10T08:55:15.805Z,405
2017-04-10T08:57:41.108Z,380
2017-04-10T09:00:06.421Z,370
2017-04-10T09:02:32.590Z,345
2017-04-10T09:04:57.849Z,305
2017-04-10T09:07:23.114Z,290
2017-04-10T09:09:48.336Z,285
2017-04-10T09:12:13.540Z,305
2017-04-10T09:14:38.761Z,295
2017-04-10T09:17:03.982Z,295
2017-04-10T09:19:29.169Z,295
2017-04-10T09:21:54.390Z,295
2017-04-10T09:24:19.719Z,300
2017-04-10T09:26:44.995Z,295
2017-04-10T09:29:10.223Z,295
2017-04-10T09:31:35.423Z,290
2017-04-10T09:34:00.596Z,285
2017-04-10T09:36:25.898Z,275
2017-04-10T09:38:52.240Z,270
2017-04-10T09:41:17.443Z,265
2017-04-10T09:43:42.675Z,255
2017-04-10T09:46:08.913Z,245
2017-04-10T09:48:34.122Z,235
2017-04-10T09:50:59.225Z,225
2017-04-10T09:53:24.340Z,215
2017-04-10T09:55:49.407Z,210
2017-04-10T09:58:14.568Z,200
2017-04-10T10:00:39.735Z,200
2017-04-10T10:03:04.837Z,195
2017-04-10T10:05:30.877Z,190
2017-04-10T10:07:56.004Z,185
2017-04-10T10:10:22.084Z,180
2017-04-10T10:12:48.231Z,175
2017-04-10T10:15:13.312Z,170
2017-04-10T10:17:38.305Z,165
2017-04-10T10:20:03.321Z,165
2017-04-10T10:22:28.329Z,160
2017-04-10T10:24:53.313Z,160
2017-04-10T10:27:18.330Z,155
2017-04-10T10:29:51.102Z,155
2017-04-10T10:32:19.779Z,150
2017-04-10T10:37:12.142Z,150
2017-04-10T10:39:38.318Z,150
2017-04-10T10:42:02.933Z,150
2017-04-10T10:44:36.579Z,150
2017-04-10T10:49:21.728Z,140
2017-04-10T10:51:47.740Z,135
2017-04-10T10:54:12.559Z,140
2017-04-10T10:56:39.477Z,135
2017-04-10T10:59:04.578Z,130
2017-04-10T11:01:27.527Z,135
2017-04-10T11:04:04.363Z,135
2017-04-10T11:06:30.210Z,135
2017-04-10T11:08:55.142Z,135
2017-04-10T11:11:20.124Z,135
2017-04-10T11:13:46.829Z,125
2017-04-10T11:16:12.055Z,120
2017-04-10T11:18:37.305Z,130
2017-04-10T11:21:02.095Z,130
2017-04-10T11:23:33.613Z,120
2017-04-10T11:25:58.547Z,115
2017-04-10T11:30:39.376Z,125
2017-04-10T11:33:21.149Z,115
2017-04-10T11:36:05.515Z,115
2017-04-10T11:38:30.225Z,110
2017-04-10T11:40:56.797Z,110
2017-04-10T11:43:30.256Z,110
2017-04-10T11:46:17.821Z,105
2017-04-10T11:48:49.803Z,105
2017-04-10T11:51:21.857Z,105
2017-04-10T11:53:47.452Z,110
2017-04-10T11:56:12.844Z,105
2017-04-10T11:58:40.900Z,105
2017-04-10T12:01:06.866Z,105
2017-04-10T12:03:37.145Z,110
2017-04-10T12:08:55.742Z,105
2017-04-10T12:11:28.443Z,110
2017-04-10T12:16:16.569Z,105
2017-04-10T12:18:46.015Z,105
2017-04-10T12:21:11.397Z,105
2017-04-10T12:23:37.686Z,95
2017-04-10T12:26:02.658Z,100
2017-04-10T12:28:34.623Z,100
2017-04-10T12:30:59.828Z,105
2017-04-10T12:33:24.676Z,90
2017-04-10T12:35:49.506Z,95
2017-04-10T12:38:14.418Z,100
2017-04-10T12:42:15.189Z,100
2017-04-10T12:44:40.023Z,100
2017-04-10T12:47:04.918Z,110
2017-04-10T12:49:29.737Z,110
2017-04-10T12:51:54.501Z,115
2017-04-10T12:54:19.375Z,110
2017-04-10T12:56:44.128Z,110
2017-04-10T12:59:08.897Z,110
2017-04-10T13:01:33.828Z,110
2017-04-10T13:03:58.503Z,110
2017-04-10T13:06:23.329Z,105
2017-04-10T13:08:48.133Z,105
2017-04-10T13:11:12.907Z,105
2017-04-10T13:13:37.743Z,105
2017-04-10T13:16:02.537Z,105
2017-04-10T13:18:27.414Z,105
2017-04-10T13:20:52.211Z,95
2017-04-10T13:25:19.070Z,90
2017-04-10T13:27:43.867Z,90
2017-04-10T13:30:08.646Z,90
2017-04-10T13:32:33.446Z,85
2017-04-10T13:34:58.245Z,90
2017-04-10T13:37:23.034Z,95
2017-04-10T13:39:47.841Z,100
2017-04-10T13:42:12.632Z,105
2017-04-10T13:46:47.967Z,105
2017-04-10T13:49:12.819Z,105
2017-04-10T13:51:37.607Z,105
2017-04-10T13:54:02.396Z,100
2017-04-10T13:56:18.733Z,95
2017-04-10T13:58:43.524Z,95
2017-04-10T14:00:59.823Z,95
2017-04-10T14:03:24.708Z,95
2017-04-10T14:05:49.507Z,95
2017-04-10T14:08:14.309Z,95
2017-04-10T14:10:39.119Z,90
2017-04-10T14:13:04.011Z,100
2017-04-10T14:15:28.802Z,100
2017-04-10T14:17:53.612Z,100
2017-04-10T14:20:18.511Z,105
2017-04-10T14:22:43.331Z,110
2017-04-10T14:25:08.122Z,105
2017-04-10T14:27:32.917Z,100
2017-04-10T14:29:58.085Z,105
2017-04-10T14:32:32.879Z,100
